Time;durP1;ratioP1;P1;durP2;ratioP2;P2;SDS_P1;SDS_P2;PMS_P1;PMS_P2;Temp;Humidity;BMP_temperature;BMP_pressure;BME280_temperature;BME280_humidity;BME280_pressure;Samples;Min_cycle;Max_cycle;Signal;HPM_P1;HPM_P2
2022/03/17 00:00:38;;;;;;;97.82;46.75;;;10.20;99.90;;;;;;5095362;28;20031;-81
2022/03/17 00:03:05;;;;;;;100.35;46.47;;;10.20;99.90;;;;;;5095190;28;20052;-80
2022/03/17 00:05:31;;;;;;;104.70;48.78;;;10.20;99.90;;;;;;5077040;28;20391;-81
2022/03/17 00:07:58;;;;;;;98.10;47.92;;;10.20;99.90;;;;;;5076921;28;20539;-81
2022/03/17 00:10:23;;;;;;;97.32;47.40;;;10.20;99.90;;;;;;5076985;28;20027;-81
2022/03/17 00:12:49;;;;;;;105.20;49.90;;;10.20;99.90;;;;;;5094946;28;20020;-79
2022/03/17 00:15:16;;;;;;;96.43;46.42;;;10.20;99.90;;;;;;5094284;28;20074;-81
2022/03/17 00:17:43;;;;;;;89.97;45.55;;;10.30;99.90;;;;;;5095055;28;20146;-81
2022/03/17 00:20:10;;;;;;;96.95;48.20;;;10.30;99.90;;;;;;5076683;28;20514;-81
2022/03/17 00:22:36;;;;;;;95.28;45.80;;;10.30;99.90;;;;;;5076865;28;20032;-81
2022/03/17 00:25:04;;;;;;;99.00;46.55;;;10.20;99.90;;;;;;5076566;28;20065;-81
2022/03/17 00:27:31;;;;;;;94.05;46.35;;;10.30;99.90;;;;;;5076661;28;20544;-80
2022/03/17 00:29:57;;;;;;;94.30;45.92;;;10.30;99.90;;;;;;5094653;28;20487;-80
2022/03/17 00:32:23;;;;;;;96.82;46.67;;;10.30;99.90;;;;;;5094812;28;20025;-81
2022/03/17 00:37:34;;;;;;;94.30;45.65;;;10.30;99.90;;;;;;5094536;28;20474;-81
2022/03/17 00:40:00;;;;;;;98.90;46.50;;;10.30;99.90;;;;;;5094451;28;20059;-80
2022/03/17 00:42:27;;;;;;;96.93;46.78;;;10.30;99.90;;;;;;5094390;28;20031;-81
2022/03/17 00:44:54;;;;;;;101.30;46.13;;;10.20;99.90;;;;;;5076291;28;20051;-81
2022/03/17 00:47:21;;;;;;;99.10;45.92;;;10.20;99.90;;;;;;5076219;28;20090;-81
2022/03/17 00:49:47;;;;;;;102.05;47.85;;;10.20;99.90;;;;;;5094480;28;20020;-81
2022/03/17 00:52:15;;;;;;;90.10;45.80;;;10.30;99.90;;;;;;5094278;28;20110;-82
2022/03/17 00:54:42;;;;;;;99.40;47.85;;;10.30;99.90;;;;;;5076075;28;20016;-81
2022/03/17 00:57:08;;;;;;;96.85;45.80;;;10.30;99.90;;;;;;5094420;28;20024;-81
2022/03/17 00:59:38;;;;;;;97.53;48.28;;;10.30;99.90;;;;;;5094114;28;20556;-81
2022/03/17 01:02:08;;;;;;;95.13;46.08;;;10.30;99.90;;;;;;5060658;28;20074;-81
2022/03/17 01:04:35;;;;;;;95.40;47.25;;;10.30;99.90;;;;;;5073728;28;20051;-81
2022/03/17 01:07:02;;;;;;;97.50;45.00;;;10.30;99.90;;;;;;5073723;28;20028;-81
2022/03/17 01:09:30;;;;;;;99.35;47.47;;;10.30;99.90;;;;;;5055733;28;20021;-81
2022/03/17 01:11:56;;;;;;;92.05;46.65;;;10.30;99.90;;;;;;5073681;28;20722;-81
2022/03/17 01:14:23;;;;;;;94.30;46.88;;;10.30;99.90;;;;;;5073565;28;20013;-81
2022/03/17 01:16:50;;;;;;;98.72;46.15;;;10.30;99.90;;;;;;5055690;28;20032;-81
2022/03/17 01:19:19;;;;;;;93.05;45.50;;;10.30;99.90;;;;;;5073753;28;20032;-81
2022/03/17 01:21:46;;;;;;;95.43;45.70;;;10.30;99.90;;;;;;5055463;28;20086;-81
2022/03/17 01:24:11;;;;;;;96.88;46.45;;;10.20;99.90;;;;;;5073532;28;20028;-81
2022/03/17 01:26:37;;;;;;;100.22;47.15;;;10.20;99.90;;;;;;5073051;28;20050;-81
2022/03/17 01:29:03;;;;;;;95.95;46.42;;;10.20;99.90;;;;;;5054743;28;20021;-81
2022/03/17 01:31:29;;;;;;;97.22;46.30;;;10.20;99.90;;;;;;5083811;28;20449;-81
2022/03/17 01:33:58;;;;;;;98.07;47.30;;;10.20;99.90;;;;;;5093837;28;20020;-81
2022/03/17 01:36:24;;;;;;;97.95;47.20;;;10.20;99.90;;;;;;5093482;28;20498;-81
2022/03/17 01:38:50;;;;;;;99.03;43.40;;;10.20;99.90;;;;;;5093464;28;20070;-81
2022/03/17 01:41:16;;;;;;;96.43;46.28;;;10.20;99.90;;;;;;5093685;28;20078;-81
2022/03/17 01:43:41;;;;;;;96.80;46.70;;;10.20;99.90;;;;;;5075043;28;20099;-81
2022/03/17 01:46:09;;;;;;;95.28;46.67;;;10.20;99.90;;;;;;5075359;28;20391;-81
2022/03/17 01:48:34;;;;;;;96.82;46.35;;;10.20;99.90;;;;;;5093503;28;20016;-81
2022/03/17 01:51:00;;;;;;;92.72;45.08;;;10.20;99.90;;;;;;5092846;28;20031;-81
2022/03/17 01:53:26;;;;;;;97.78;47.47;;;10.10;99.90;;;;;;5092026;28;20103;-81
2022/03/17 01:55:52;;;;;;;93.82;44.88;;;10.10;99.90;;;;;;5074826;28;20024;-81
2022/03/17 01:58:18;;;;;;;94.65;47.40;;;10.20;99.90;;;;;;5093088;28;20028;-81
2022/03/17 02:00:47;;;;;;;106.05;49.30;;;10.10;99.90;;;;;;5093132;28;20115;-81
2022/03/17 02:03:13;;;;;;;99.60;47.80;;;10.10;99.90;;;;;;5093013;28;20047;-81
2022/03/17 02:05:39;;;;;;;98.30;49.05;;;10.10;99.90;;;;;;5093117;28;20059;-81
2022/03/17 02:08:09;;;;;;;94.68;46.45;;;10.10;99.90;;;;;;5093175;28;20024;-81
2022/03/17 02:13:19;;;;;;;90.53;44.45;;;10.10;99.90;;;;;;5093025;28;20515;-81
2022/03/17 02:18:23;;;;;;;99.53;47.47;;;10.00;99.90;;;;;;4633299;23;20048;-80
2022/03/17 02:20:49;;;;;;;100.57;47.10;;;9.90;99.90;;;;;;5072417;28;20024;-81
2022/03/17 02:26:03;;;;;;;102.80;47.50;;;9.90;99.90;;;;;;5073120;28;20082;-80
2022/03/17 02:28:32;;;;;;;96.53;45.72;;;9.90;99.90;;;;;;5072706;28;20025;-81
2022/03/17 02:30:59;;;;;;;97.97;47.00;;;9.90;99.90;;;;;;5054951;28;20028;-81
2022/03/17 02:33:26;;;;;;;97.43;47.25;;;9.90;99.90;;;;;;5072837;28;20025;-81
2022/03/17 02:35:53;;;;;;;100.32;46.63;;;9.90;99.90;;;;;;5072683;28;20044;-79
2022/03/17 02:38:20;;;;;;;98.68;47.78;;;9.90;99.90;;;;;;5077873;28;20530;-80
2022/03/17 02:40:50;;;;;;;103.85;47.45;;;9.90;99.90;;;;;;5096748;28;20056;-81
2022/03/17 02:43:17;;;;;;;101.72;48.92;;;9.90;99.90;;;;;;5096892;28;20027;-81
2022/03/17 02:45:43;;;;;;;102.20;47.08;;;9.90;99.90;;;;;;5096795;28;20390;-80
2022/03/17 02:48:10;;;;;;;106.15;47.90;;;9.90;99.90;;;;;;5096700;28;20028;-81
2022/03/17 02:50:36;;;;;;;110.63;48.33;;;9.80;99.90;;;;;;5078582;28;20051;-81
2022/03/17 02:53:10;;;;;;;101.70;49.05;;;9.80;99.90;;;;;;5078467;28;20497;-80
2022/03/17 02:55:37;;;;;;;108.20;50.28;;;9.80;99.90;;;;;;5096673;28;20032;-80
2022/03/17 02:58:07;;;;;;;109.32;51.15;;;9.80;99.90;;;;;;5096613;28;20020;-80
2022/03/17 03:00:34;;;;;;;96.88;48.13;;;9.80;99.90;;;;;;5096442;28;20039;-81
2022/03/17 03:03:00;;;;;;;106.95;51.08;;;9.80;99.90;;;;;;5096082;28;20572;-81
2022/03/17 03:05:26;;;;;;;104.05;50.45;;;9.80;99.90;;;;;;5096105;28;20038;-81
2022/03/17 03:07:55;;;;;;;110.60;50.25;;;9.80;99.90;;;;;;5078087;28;20406;-80
2022/03/17 03:10:21;;;;;;;104.18;49.38;;;9.80;99.90;;;;;;5078389;28;20122;-81
2022/03/17 03:12:47;;;;;;;116.25;54.10;;;9.80;99.90;;;;;;5095589;28;20048;-73
2022/03/17 03:15:13;;;;;;;108.22;50.00;;;9.90;99.90;;;;;;5094897;28;20031;-74
2022/03/17 03:17:39;;;;;;;104.28;51.00;;;9.90;99.90;;;;;;5094626;28;20101;-73
2022/03/17 03:20:06;;;;;;;107.45;52.35;;;9.90;99.90;;;;;;5095329;28;20051;-73
2022/03/17 03:22:39;;;;;;;109.28;52.13;;;9.80;99.90;;;;;;5076884;28;20027;-73
2022/03/17 03:25:08;;;;;;;107.22;51.35;;;9.80;99.90;;;;;;5095399;28;20107;-74
2022/03/17 03:27:35;;;;;;;107.03;53.33;;;9.80;99.90;;;;;;5095560;28;20062;-73
2022/03/17 03:30:01;;;;;;;111.78;51.45;;;9.80;99.90;;;;;;5095248;28;20428;-73
2022/03/17 03:32:27;;;;;;;107.50;51.17;;;9.80;99.90;;;;;;5076499;28;20086;-73
2022/03/17 03:34:53;;;;;;;112.43;53.58;;;9.80;99.90;;;;;;5075041;28;20495;-73
2022/03/17 03:37:25;;;;;;;121.68;54.17;;;9.80;99.90;;;;;;5074956;28;20021;-73
2022/03/17 03:39:56;;;;;;;;;;;9.80;99.90;;;;;;5075442;28;20415;-73
2022/03/17 03:42:23;;;;;;;111.90;53.53;;;9.80;99.90;;;;;;5074611;28;19954;-74
2022/03/17 03:44:49;;;;;;;115.10;54.83;;;9.80;99.90;;;;;;5074764;28;20060;-73
2022/03/17 03:47:15;;;;;;;111.60;52.33;;;9.80;99.90;;;;;;5075019;28;20051;-73
2022/03/17 03:49:41;;;;;;;123.38;55.40;;;9.80;99.90;;;;;;5074375;28;20476;-73
2022/03/17 03:52:09;;;;;;;115.10;56.80;;;9.80;99.90;;;;;;5073410;28;20013;-73
2022/03/17 03:54:35;;;;;;;119.78;53.75;;;9.80;99.90;;;;;;5074551;28;20039;-73
2022/03/17 03:57:01;;;;;;;113.22;55.03;;;9.80;99.90;;;;;;5074584;28;20490;-73
2022/03/17 03:59:29;;;;;;;109.00;52.55;;;9.80;99.90;;;;;;5074409;28;20065;-73
2022/03/17 04:02:03;;;;;;;116.20;53.58;;;9.80;99.90;;;;;;5074313;28;20036;-74
2022/03/17 04:04:30;;;;;;;112.55;51.35;;;9.70;99.90;;;;;;5074362;28;20111;-73
2022/03/17 04:06:58;;;;;;;115.38;52.80;;;9.70;99.90;;;;;;5074304;28;20108;-73
2022/03/17 04:09:27;;;;;;;108.93;50.53;;;9.70;99.90;;;;;;5074241;28;20104;-73
2022/03/17 04:11:54;;;;;;;102.20;50.70;;;9.50;99.90;;;;;;5074175;28;20025;-73
2022/03/17 04:14:21;;;;;;;104.40;50.70;;;9.40;99.90;;;;;;5074412;28;20051;-73
2022/03/17 04:16:47;;;;;;;116.03;52.13;;;9.40;99.90;;;;;;5074295;28;20486;-73
2022/03/17 04:19:15;;;;;;;98.85;47.83;;;9.30;99.90;;;;;;5074579;28;20033;-73
2022/03/17 04:21:41;;;;;;;104.95;50.80;;;9.20;99.90;;;;;;5074289;28;20051;-73
2022/03/17 04:24:07;;;;;;;108.65;52.80;;;9.20;99.90;;;;;;5074262;28;20021;-73
2022/03/17 04:26:33;;;;;;;113.65;51.55;;;9.20;99.90;;;;;;5073930;28;20020;-73
2022/03/17 04:28:59;;;;;;;115.10;51.33;;;9.20;99.90;;;;;;5074152;28;20094;-73
2022/03/17 04:31:25;;;;;;;116.65;56.00;;;9.30;99.90;;;;;;5073953;28;20471;-73
2022/03/17 04:33:51;;;;;;;118.05;53.28;;;9.30;99.90;;;;;;5074827;28;20031;-73
2022/03/17 04:36:18;;;;;;;116.82;56.05;;;9.30;99.90;;;;;;5073861;28;20024;-73
2022/03/17 04:38:44;;;;;;;120.25;55.45;;;9.30;99.90;;;;;;5073766;28;20035;-73
2022/03/17 04:41:10;;;;;;;117.43;55.22;;;9.40;99.90;;;;;;5073729;28;20490;-73
2022/03/17 04:43:40;;;;;;;122.93;56.13;;;9.40;99.90;;;;;;5073825;28;20020;-73
2022/03/17 04:46:09;;;;;;;111.40;53.47;;;9.40;99.90;;;;;;5073648;28;20055;-73
2022/03/17 04:48:35;;;;;;;118.03;54.60;;;9.40;99.90;;;;;;5073428;28;20020;-73
2022/03/17 04:51:01;;;;;;;115.88;54.42;;;9.40;99.90;;;;;;5073122;28;20098;-73
2022/03/17 04:53:27;;;;;;;111.20;53.42;;;9.50;99.90;;;;;;5072896;28;20020;-73
2022/03/17 04:55:54;;;;;;;113.95;51.97;;;9.40;99.90;;;;;;5073151;28;20538;-73
2022/03/17 04:58:19;;;;;;;113.35;54.20;;;9.40;99.90;;;;;;5055133;28;20079;-73
2022/03/17 05:00:46;;;;;;;118.93;52.88;;;9.50;99.90;;;;;;5073048;28;20395;-73
2022/03/17 05:03:14;;;;;;;115.82;53.70;;;9.50;99.90;;;;;;5072391;28;20025;-73
2022/03/17 05:05:40;;;;;;;107.90;51.08;;;9.60;99.90;;;;;;5072663;28;20476;-73
2022/03/17 05:08:06;;;;;;;112.60;51.45;;;9.70;99.90;;;;;;5072989;28;20529;-73
2022/03/17 05:10:36;;;;;;;120.20;53.63;;;9.70;99.90;;;;;;5073427;28;20471;-73
2022/03/17 05:13:05;;;;;;;110.93;53.00;;;9.70;99.90;;;;;;5072840;28;20023;-73
2022/03/17 05:15:31;;;;;;;104.72;49.42;;;9.70;99.90;;;;;;5072851;28;20024;-73
2022/03/17 05:17:57;;;;;;;112.22;51.45;;;9.70;99.90;;;;;;5072695;28;20072;-73
2022/03/17 05:20:23;;;;;;;115.93;51.65;;;9.70;99.90;;;;;;5072913;28;20525;-73
2022/03/17 05:22:49;;;;;;;103.88;49.67;;;9.70;99.90;;;;;;5054821;28;20021;-73
2022/03/17 05:25:14;;;;;;;100.35;47.80;;;9.70;99.90;;;;;;5072769;28;20111;-73
2022/03/17 05:27:45;;;;;;;100.78;49.13;;;9.60;99.90;;;;;;5072732;28;20025;-73
2022/03/17 05:30:15;;;;;;;105.82;50.08;;;9.60;99.90;;;;;;5072844;28;20057;-73
2022/03/17 05:32:42;;;;;;;106.78;49.85;;;9.60;99.90;;;;;;5052645;28;20032;-73
2022/03/17 05:35:08;;;;;;;106.60;47.70;;;9.60;99.90;;;;;;5052809;28;20033;-74
2022/03/17 05:37:35;;;;;;;104.65;50.17;;;9.60;99.90;;;;;;5052894;28;20496;-73
2022/03/17 05:40:04;;;;;;;101.82;49.38;;;9.60;99.90;;;;;;5052491;28;20035;-73
2022/03/17 05:42:31;;;;;;;101.75;48.10;;;9.60;99.90;;;;;;5064122;28;20033;-73
2022/03/17 05:44:57;;;;;;;107.68;47.67;;;9.60;99.90;;;;;;5071043;28;20029;-73
2022/03/17 05:47:23;;;;;;;95.97;46.90;;;9.60;99.90;;;;;;5070933;28;20029;-73
2022/03/17 05:49:48;;;;;;;106.93;50.15;;;9.60;99.90;;;;;;5070415;28;20100;-73
2022/03/17 05:52:14;;;;;;;103.15;48.03;;;9.60;99.90;;;;;;5071129;28;20096;-73
2022/03/17 05:54:44;;;;;;;105.93;49.05;;;9.60;99.90;;;;;;5097999;22;20124;-73
2022/03/17 05:57:10;;;;;;;97.03;47.33;;;9.60;99.90;;;;;;5063599;28;20104;-73
2022/03/17 05:59:39;;;;;;;105.68;49.78;;;9.60;99.90;;;;;;5052299;28;20040;-73
2022/03/17 06:02:05;;;;;;;105.55;48.05;;;9.60;99.90;;;;;;5072411;28;20032;-73
2022/03/17 06:04:31;;;;;;;96.15;45.65;;;9.60;99.90;;;;;;5072657;28;20139;-73
2022/03/17 06:06:57;;;;;;;101.82;47.30;;;9.70;99.90;;;;;;5072569;28;20119;-73
2022/03/17 06:09:23;;;;;;;98.55;46.67;;;9.70;99.90;;;;;;5072271;28;20437;-73
2022/03/17 06:11:48;;;;;;;101.50;46.55;;;9.70;99.90;;;;;;5073442;28;20155;-73
2022/03/17 06:14:14;;;;;;;102.72;47.40;;;9.70;99.90;;;;;;5055909;28;20036;-74
2022/03/17 06:16:40;;;;;;;99.47;47.05;;;9.70;99.90;;;;;;5076366;28;20032;-73
2022/03/17 06:19:06;;;;;;;107.15;48.25;;;9.70;99.90;;;;;;5076327;28;20028;-73
2022/03/17 06:21:31;;;;;;;93.10;46.35;;;9.70;99.90;;;;;;5076195;28;20025;-73
2022/03/17 06:23:57;;;;;;;94.40;46.45;;;9.70;99.90;;;;;;5073889;28;20471;-82
2022/03/17 06:26:23;;;;;;;113.97;48.72;;;9.80;99.90;;;;;;5080160;28;20085;-82
2022/03/17 06:28:49;;;;;;;97.82;44.03;;;9.80;99.90;;;;;;5072795;28;20111;-74
2022/03/17 06:31:15;;;;;;;94.03;42.63;;;9.80;99.90;;;;;;5063888;28;20032;-74
2022/03/17 06:33:41;;;;;;;98.15;44.75;;;9.90;99.90;;;;;;5054249;28;20390;-74
2022/03/17 06:36:06;;;;;;;99.65;44.80;;;9.90;99.90;;;;;;5036461;28;20025;-74
2022/03/17 06:38:32;;;;;;;91.50;43.85;;;10.00;99.90;;;;;;5036486;28;20074;-74
2022/03/17 06:40:58;;;;;;;92.43;42.22;;;10.00;99.90;;;;;;5036756;28;20020;-74
2022/03/17 06:43:23;;;;;;;93.05;42.38;;;10.00;99.90;;;;;;5035658;28;20480;-74
2022/03/17 06:45:50;;;;;;;91.78;41.33;;;10.00;99.90;;;;;;5053759;28;20361;-74
2022/03/17 06:48:15;;;;;;;93.70;42.42;;;10.10;99.90;;;;;;5036216;28;20063;-74
2022/03/17 06:50:41;;;;;;;94.03;41.17;;;10.10;99.90;;;;;;5036475;28;20025;-74
2022/03/17 06:53:07;;;;;;;92.68;43.63;;;10.10;99.90;;;;;;5054063;28;20021;-74
2022/03/17 06:55:33;;;;;;;88.80;41.40;;;10.10;99.90;;;;;;5036232;28;20045;-74
2022/03/17 06:58:00;;;;;;;87.82;42.92;;;10.10;99.90;;;;;;5054715;28;20033;-74
2022/03/17 07:00:26;;;;;;;89.60;43.05;;;10.20;99.90;;;;;;5054396;28;20068;-74
2022/03/17 07:02:51;;;;;;;92.80;44.33;;;10.20;99.90;;;;;;5036506;28;20419;-74
2022/03/17 07:05:20;;;;;;;99.97;46.78;;;10.20;99.90;;;;;;5054431;28;20040;-74
2022/03/17 07:07:46;;;;;;;100.88;44.70;;;10.20;99.90;;;;;;5054471;28;20021;-74
2022/03/17 07:10:13;;;;;;;92.35;43.95;;;10.20;99.90;;;;;;5068524;28;20495;-74
2022/03/17 07:12:42;;;;;;;103.57;46.78;;;10.20;99.90;;;;;;5073724;28;20031;-74
2022/03/17 07:15:08;;;;;;;101.20;44.78;;;10.30;99.90;;;;;;5071632;28;20275;-74
2022/03/17 07:17:41;;;;;;;91.72;43.03;;;10.30;99.90;;;;;;5074345;28;20029;-74
2022/03/17 07:20:12;;;;;;;95.38;42.55;;;10.30;99.90;;;;;;5074360;28;20024;-74
2022/03/17 07:22:40;;;;;;;90.43;42.03;;;10.30;99.90;;;;;;5056261;28;20028;-74
2022/03/17 07:25:06;;;;;;;99.85;44.55;;;10.30;99.90;;;;;;5056144;28;20021;-74
2022/03/17 07:27:43;;;;;;;83.72;38.58;;;10.40;99.90;;;;;;5073472;28;20028;-74
2022/03/17 07:30:18;;;;;;;92.90;43.25;;;10.40;99.90;;;;;;5074002;28;20048;-74
2022/03/17 07:32:46;;;;;;;92.82;42.78;;;10.40;99.90;;;;;;5036018;28;20024;-74
2022/03/17 07:35:12;;;;;;;98.47;44.53;;;10.40;99.90;;;;;;5069362;28;20498;-74
2022/03/17 07:37:39;;;;;;;105.05;49.13;;;10.40;99.90;;;;;;5090378;28;20020;-74
2022/03/17 07:40:05;;;;;;;101.15;47.28;;;10.30;99.90;;;;;;5089699;28;20024;-74
2022/03/17 07:42:31;;;;;;;106.75;50.08;;;10.30;99.90;;;;;;5089608;28;20028;-74
2022/03/17 07:44:56;;;;;;;113.85;51.83;;;10.30;99.90;;;;;;5089983;28;20050;-73
2022/03/17 07:47:22;;;;;;;102.65;50.75;;;10.30;99.90;;;;;;5080682;28;20111;-74
2022/03/17 07:49:50;;;;;;;113.32;48.83;;;10.30;99.90;;;;;;5052072;28;20029;-74
2022/03/17 07:52:15;;;;;;;107.15;49.67;;;10.30;99.90;;;;;;5069489;28;20016;-74
2022/03/17 07:54:41;;;;;;;109.13;50.42;;;10.40;99.90;;;;;;5068776;28;20120;-74
2022/03/17 07:57:08;;;;;;;109.90;52.13;;;10.30;99.90;;;;;;5069811;28;20545;-74
2022/03/17 07:59:34;;;;;;;109.82;52.22;;;10.40;99.90;;;;;;5069116;28;20503;-74
2022/03/17 08:02:00;;;;;;;105.80;49.50;;;10.40;99.90;;;;;;5053871;28;20170;-71
2022/03/17 08:04:25;;;;;;;99.57;47.17;;;10.40;99.90;;;;;;5049583;28;20249;-71
2022/03/17 08:06:53;;;;;;;106.75;50.25;;;10.40;99.90;;;;;;5061178;28;20036;-73
2022/03/17 08:09:20;;;;;;;104.13;48.38;;;10.40;99.90;;;;;;5071372;28;20058;-80
2022/03/17 08:11:49;;;;;;;103.72;47.90;;;10.40;99.90;;;;;;5065193;28;20488;-80
2022/03/17 08:14:16;;;;;;;114.05;50.50;;;10.50;99.90;;;;;;5048989;28;20085;-80
2022/03/17 08:16:43;;;;;;;104.95;49.58;;;10.50;99.90;;;;;;5071519;28;20021;-80
2022/03/17 08:19:10;;;;;;;106.30;48.78;;;10.50;99.90;;;;;;5071656;28;20025;-80
2022/03/17 08:21:36;;;;;;;111.30;48.90;;;10.50;99.90;;;;;;5053811;28;20372;-80
2022/03/17 08:24:02;;;;;;;103.85;46.65;;;10.50;99.90;;;;;;5067940;28;20017;-81
2022/03/17 08:26:28;;;;;;;98.95;44.92;;;10.60;99.90;;;;;;5071395;28;20545;-80
2022/03/17 08:28:54;;;;;;;97.95;46.78;;;10.60;99.90;;;;;;5072032;28;20095;-80
2022/03/17 08:31:19;;;;;;;100.60;48.17;;;10.60;99.90;;;;;;5072729;28;20108;-80
2022/03/17 08:33:45;;;;;;;102.07;48.67;;;10.60;99.90;;;;;;5072936;28;20039;-80
2022/03/17 08:36:11;;;;;;;109.97;47.38;;;10.60;99.90;;;;;;5072046;28;20043;-80
2022/03/17 08:38:37;;;;;;;109.45;49.10;;;10.70;99.90;;;;;;5072725;28;20031;-80
2022/03/17 08:41:02;;;;;;;111.05;51.13;;;10.70;99.90;;;;;;5072465;28;20078;-80
2022/03/17 08:43:28;;;;;;;104.80;47.70;;;10.70;99.90;;;;;;5072475;28;20095;-80
2022/03/17 08:51:26;;;;;;;102.07;48.25;;;10.80;99.90;;;;;;5068131;28;20027;-80
2022/03/17 08:53:57;;;;;;;105.25;48.22;;;10.80;99.90;;;;;;5068439;28;20025;-80
2022/03/17 08:56:23;;;;;;;105.32;46.97;;;10.90;99.90;;;;;;5068856;28;20047;-79
2022/03/17 08:58:48;;;;;;;102.43;45.78;;;10.90;99.90;;;;;;5067809;28;20171;-80
2022/03/17 09:01:14;;;;;;;120.50;49.53;;;11.00;99.90;;;;;;5068054;28;20074;-80
2022/03/17 09:03:40;;;;;;;111.68;51.13;;;11.10;99.90;;;;;;5050315;28;20024;-79
2022/03/17 09:06:05;;;;;;;109.32;50.60;;;11.00;99.90;;;;;;5067725;28;20032;-79
2022/03/17 09:08:31;;;;;;;98.95;48.08;;;11.10;99.90;;;;;;5070406;28;20031;-80
2022/03/17 09:10:57;;;;;;;105.65;49.90;;;11.10;99.90;;;;;;5054200;28;20191;-80
2022/03/17 09:13:25;;;;;;;112.68;50.88;;;11.10;99.90;;;;;;5071948;28;20162;-80
2022/03/17 09:15:53;;;;;;;110.07;49.60;;;11.10;99.90;;;;;;5054020;28;20024;-80
2022/03/17 09:18:21;;;;;;;117.78;50.00;;;11.20;99.90;;;;;;5072127;28;20492;-80
2022/03/17 09:20:48;;;;;;;112.78;52.50;;;11.20;99.90;;;;;;5054114;28;20056;-80
2022/03/17 09:23:13;;;;;;;105.05;48.05;;;11.30;99.90;;;;;;5071715;28;20032;-80
2022/03/17 09:25:39;;;;;;;105.22;50.42;;;11.30;99.90;;;;;;5071940;28;20032;-80
2022/03/17 09:28:05;;;;;;;98.95;48.50;;;11.30;99.90;;;;;;5054004;28;20111;-80
2022/03/17 09:30:32;;;;;;;109.97;50.72;;;11.30;99.90;;;;;;5071599;28;20025;-80
2022/03/17 09:32:59;;;;;;;117.45;50.08;;;11.40;99.90;;;;;;5071736;28;20020;-80
2022/03/17 09:35:26;;;;;;;109.70;51.60;;;11.40;99.90;;;;;;5071681;28;20052;-80
2022/03/17 09:37:51;;;;;;;112.05;51.05;;;11.50;99.90;;;;;;5071677;28;20024;-80
2022/03/17 09:40:17;;;;;;;103.72;50.53;;;11.50;99.90;;;;;;5067238;28;20036;-80
2022/03/17 09:42:43;;;;;;;110.32;52.50;;;11.50;99.90;;;;;;5066916;28;20111;-80
2022/03/17 09:45:10;;;;;;;120.40;53.55;;;11.50;99.90;;;;;;5033381;28;20029;-80
2022/03/17 09:47:39;;;;;;;106.13;50.20;;;11.50;99.90;;;;;;5066626;28;20032;-80
2022/03/17 09:50:07;;;;;;;104.03;48.60;;;11.50;99.90;;;;;;5066473;28;20024;-80
2022/03/17 09:52:36;;;;;;;116.53;49.15;;;11.50;99.90;;;;;;5067702;28;20025;-80
2022/03/17 09:55:04;;;;;;;105.55;50.72;;;11.60;99.90;;;;;;5067343;28;20503;-80
2022/03/17 09:57:29;;;;;;;110.63;48.33;;;11.60;99.90;;;;;;5049015;28;20537;-80
2022/03/17 09:59:58;;;;;;;109.00;47.83;;;11.60;99.90;;;;;;5067797;28;20025;-80
2022/03/17 10:02:25;;;;;;;108.00;47.03;;;11.60;99.90;;;;;;5049077;28;20040;-80
2022/03/17 10:04:51;;;;;;;110.78;47.38;;;11.70;99.90;;;;;;5046716;28;20041;-77
2022/03/17 10:07:20;;;;;;;97.38;47.45;;;11.70;99.90;;;;;;5047802;28;20484;-77
2022/03/17 10:09:47;;;;;;;91.78;46.30;;;11.70;99.90;;;;;;5029416;28;20037;-80
2022/03/17 10:12:14;;;;;;;106.45;49.92;;;11.70;99.90;;;;;;5028704;28;20468;-80
2022/03/17 10:14:53;;;;;;;113.15;49.33;;;11.70;99.90;;;;;;5047479;28;20060;-80
2022/03/17 10:17:41;;;;;;;99.35;49.35;;;11.70;99.90;;;;;;5047571;28;20036;-80
2022/03/17 10:20:17;;;;;;;107.20;50.72;;;11.80;99.90;;;;;;5051176;28;20103;-80
2022/03/17 10:22:44;;;;;;;106.15;48.30;;;11.80;99.90;;;;;;5051581;28;20025;-73
2022/03/17 10:25:12;;;;;;;107.72;49.92;;;11.90;99.90;;;;;;5061823;28;20028;-73
2022/03/17 10:27:45;;;;;;;110.20;48.78;;;11.90;99.90;;;;;;5071161;28;20035;-74
2022/03/17 10:30:14;;;;;;;108.57;47.80;;;11.90;99.90;;;;;;5071292;28;20028;-74
2022/03/17 10:32:52;;;;;;;99.97;46.05;;;11.90;99.90;;;;;;5051245;28;20025;-74
2022/03/17 10:35:26;;;;;;;107.90;47.72;;;11.90;99.90;;;;;;5051210;28;20473;-74
2022/03/17 10:37:52;;;;;;;106.22;50.25;;;12.00;99.90;;;;;;5050971;28;20108;-74
2022/03/17 10:40:18;;;;;;;100.28;48.92;;;12.00;99.90;;;;;;5068125;28;20527;-74
2022/03/17 10:42:43;;;;;;;98.15;45.10;;;12.00;99.90;;;;;;5087236;28;20024;-73
2022/03/17 10:45:10;;;;;;;103.30;46.38;;;12.00;99.90;;;;;;5068351;28;20479;-74
2022/03/17 10:47:42;;;;;;;97.93;45.75;;;12.00;99.90;;;;;;5086794;28;20383;-74
2022/03/17 10:50:22;;;;;;;99.50;45.00;;;12.00;99.90;;;;;;5087407;28;20024;-74
2022/03/17 10:52:55;;;;;;;96.20;47.45;;;12.10;99.90;;;;;;5087103;28;20562;-74
2022/03/17 10:55:29;;;;;;;97.85;44.80;;;12.10;99.90;;;;;;5087220;28;20044;-74
2022/03/17 10:58:14;;;;;;;91.78;43.80;;;12.10;99.90;;;;;;5088654;28;20161;-72
2022/03/17 11:00:51;;;;;;;96.13;42.38;;;12.10;99.90;;;;;;5086237;28;20472;-74
2022/03/17 11:03:21;;;;;;;94.07;44.42;;;12.10;99.90;;;;;;5055899;28;20017;-80
2022/03/17 11:05:53;;;;;;;94.43;43.50;;;12.20;99.90;;;;;;5072197;28;20075;-80
2022/03/17 11:08:20;;;;;;;96.22;43.35;;;12.20;99.90;;;;;;5073650;28;20602;-80
2022/03/17 11:10:47;;;;;;;93.13;43.25;;;12.20;99.90;;;;;;5073211;28;20017;-80
2022/03/17 11:13:12;;;;;;;100.88;44.28;;;12.30;99.90;;;;;;5073732;28;20020;-80
2022/03/17 11:15:56;;;;;;;89.35;42.47;;;12.30;99.90;;;;;;5055133;28;20036;-80
2022/03/17 11:18:23;;;;;;;93.10;44.60;;;12.30;99.90;;;;;;5055508;28;20043;-80
2022/03/17 11:20:49;;;;;;;91.55;44.35;;;12.30;99.90;;;;;;5054897;28;20024;-80
2022/03/17 11:23:20;;;;;;;104.13;45.67;;;12.40;99.90;;;;;;5073015;28;20043;-79
2022/03/17 11:26:08;;;;;;;92.43;42.33;;;12.40;99.90;;;;;;5073310;28;20025;-80
2022/03/17 11:28:36;;;;;;;90.00;42.67;;;12.50;99.90;;;;;;5054752;28;20020;-80
2022/03/17 11:31:05;;;;;;;88.60;43.25;;;12.60;99.90;;;;;;5065153;28;20110;-77
2022/03/17 11:33:39;;;;;;;94.68;44.70;;;12.60;99.90;;;;;;5051538;28;20021;-80
2022/03/17 11:36:07;;;;;;;92.72;44.83;;;12.70;99.90;;;;;;5051841;28;20174;-80
2022/03/17 11:38:37;;;;;;;100.22;44.88;;;12.70;99.90;;;;;;5052084;28;20063;-80
2022/03/17 11:41:08;;;;;;;92.55;44.67;;;12.70;99.90;;;;;;5054889;28;20083;-75
2022/03/17 11:43:46;;;;;;;100.43;46.85;;;12.80;99.90;;;;;;5054694;28;20036;-75
2022/03/17 11:46:15;;;;;;;94.95;46.92;;;12.80;99.90;;;;;;5054743;28;20025;-75
2022/03/17 11:48:43;;;;;;;92.30;45.13;;;12.90;99.90;;;;;;5069749;28;20498;-74
2022/03/17 11:51:10;;;;;;;86.40;41.72;;;13.10;99.90;;;;;;5054749;28;20029;-74
2022/03/17 11:53:49;;;;;;;94.78;41.72;;;13.10;99.90;;;;;;5091335;28;20024;-74
2022/03/17 11:56:43;;;;;;;88.03;41.35;;;13.20;99.90;;;;;;5073315;28;20170;-75
2022/03/17 11:59:20;;;;;;;91.25;42.13;;;13.30;99.90;;;;;;5086724;28;20036;-74
2022/03/17 12:01:47;;;;;;;89.05;39.42;;;13.30;99.90;;;;;;5047129;28;20361;-74
2022/03/17 12:04:42;;;;;;;86.18;39.85;;;13.30;99.90;;;;;;5033326;28;20131;-74
2022/03/17 12:07:08;;;;;;;92.50;40.50;;;13.40;99.90;;;;;;5050884;28;20025;-72
2022/03/17 12:09:37;;;;;;;84.53;40.38;;;13.50;99.90;;;;;;5050760;28;20021;-72
2022/03/17 12:12:22;;;;;;;75.80;39.03;;;13.50;99.90;;;;;;5032145;28;20025;-71
2022/03/17 12:14:52;;;;;;;92.20;38.30;;;13.40;99.90;;;;;;5050485;28;20108;-74
2022/03/17 12:17:19;;;;;;;88.43;40.35;;;13.40;99.90;;;;;;5032764;28;20029;-72
2022/03/17 12:19:49;;;;;;;83.22;39.60;;;13.50;99.90;;;;;;5031971;28;20040;-71
2022/03/17 12:22:44;;;;;;;85.07;40.58;;;13.50;99.90;;;;;;5049974;28;20029;-72
2022/03/17 12:25:16;;;;;;;72.85;37.67;;;13.50;99.90;;;;;;5032791;28;20029;-74
2022/03/17 12:27:43;;;;;;;81.28;38.30;;;13.50;99.90;;;;;;5049954;28;20084;-74
2022/03/17 12:30:15;;;;;;;77.85;37.83;;;13.50;99.90;;;;;;5050203;28;20025;-74
2022/03/17 12:32:54;;;;;;;73.47;36.97;;;13.60;99.90;;;;;;5049438;28;20495;-72
2022/03/17 12:35:23;;;;;;;82.38;37.72;;;13.60;99.90;;;;;;5086835;28;20032;-72
2022/03/17 12:37:49;;;;;;;78.20;36.45;;;13.60;99.90;;;;;;5090825;28;20059;-74
2022/03/17 12:40:17;;;;;;;77.57;35.67;;;13.60;99.90;;;;;;5090257;28;20028;-74
2022/03/17 12:42:46;;;;;;;70.30;34.50;;;13.60;99.90;;;;;;5089695;28;20126;-71
2022/03/17 12:45:14;;;;;;;72.88;34.63;;;13.70;99.90;;;;;;5090089;28;20035;-72